createdAt,value
2023-05-15T00:00:06.573Z,100473.58
2023-05-15T00:03:04.859Z,100474.63
2023-05-15T00:05:36.798Z,100473.47
2023-05-15T00:08:08.848Z,100470.17
2023-05-15T00:10:42.884Z,100466.39
2023-05-15T00:13:22.545Z,100458.77
2023-05-15T00:15:54.643Z,100459.05
2023-05-15T00:18:27.399Z,100457.87
2023-05-15T00:20:59.450Z,100455.35
2023-05-15T00:23:31.304Z,100457.23
2023-05-15T00:26:03.144Z,100446.17
2023-05-15T00:28:35.247Z,100451.55
2023-05-15T00:31:08.722Z,100447.58
2023-05-15T00:33:40.767Z,100444.42
2023-05-15T00:36:13.003Z,100441.83
2023-05-15T00:38:44.786Z,100434.52
2023-05-15T00:41:17.234Z,100432.14
2023-05-15T00:43:49.110Z,100428.18
2023-05-15T00:46:22.653Z,100424.88
2023-05-15T00:48:54.781Z,100419.52
2023-05-15T00:51:26.998Z,100416.92
2023-05-15T00:53:59.086Z,100416.32
2023-05-15T00:56:32.609Z,100419.39
2023-05-15T00:59:05.731Z,100432.50
2023-05-15T01:01:38.106Z,100438.89
2023-05-15T01:04:10.037Z,100438.83
2023-05-15T01:06:41.856Z,100437.15
2023-05-15T01:09:15.364Z,100436.53
2023-05-15T01:11:48.490Z,100433.86
2023-05-15T01:14:20.462Z,100432.84
2023-05-15T01:16:52.207Z,100429.23
2023-05-15T01:19:24.452Z,100421.14
2023-05-15T01:22:27.373Z,100419.42
2023-05-15T01:25:14.503Z,100407.95
2023-05-15T01:27:48.192Z,100399.11
2023-05-15T01:30:27.569Z,100386.20
2023-05-15T01:33:04.487Z,100383.45
2023-05-15T01:35:42.751Z,100374.77
2023-05-15T01:38:28.503Z,100383.27
2023-05-15T01:41:07.473Z,100383.29
2023-05-15T01:43:42.392Z,100384.34
2023-05-15T01:46:16.607Z,100381.52
2023-05-15T01:48:46.888Z,100383.51
2023-05-15T01:51:19.277Z,100374.17
2023-05-15T01:53:52.323Z,100374.83
2023-05-15T01:56:26.550Z,100365.33
2023-05-15T01:59:00.286Z,100360.55
2023-05-15T02:01:35.408Z,100349.52
2023-05-15T02:04:07.463Z,100350.36
2023-05-15T02:06:39.675Z,100343.30
2023-05-15T02:09:12.759Z,100341.39
2023-05-15T02:11:45.027Z,100341.30
2023-05-15T02:14:18.032Z,100339.56
2023-05-15T02:16:49.984Z,100342.08
2023-05-15T02:19:21.914Z,100338.24
2023-05-15T02:21:53.697Z,100334.89
2023-05-15T02:24:25.578Z,100333.33
2023-05-15T02:27:01.420Z,100334.41
2023-05-15T02:29:38.861Z,100324.20
2023-05-15T02:32:18.461Z,100328.69
2023-05-15T02:34:56.975Z,100322.23
2023-05-15T02:37:32.785Z,100325.05
2023-05-15T02:40:07.452Z,100322.31
2023-05-15T02:42:39.994Z,100316.73
2023-05-15T02:45:13.395Z,100300.64
2023-05-15T02:47:45.260Z,100300.08
2023-05-15T02:50:17.247Z,100298.59
2023-05-15T02:52:49.247Z,100292.14
2023-05-15T02:55:21.486Z,100287.80
2023-05-15T02:57:53.269Z,100279.91
2023-05-15T03:00:25.248Z,100276.95
2023-05-15T03:02:57.213Z,100269.64
2023-05-15T03:05:29.031Z,100261.56
2023-05-15T03:08:01.437Z,100265.52
2023-05-15T03:10:33.751Z,100272.40
2023-05-15T03:13:05.654Z,100266.25
2023-05-15T03:15:37.468Z,100253.36
2023-05-15T03:18:09.371Z,100243.98
2023-05-15T03:20:41.274Z,100227.70
2023-05-15T03:23:13.002Z,100231.10
2023-05-15T03:25:44.853Z,100226.73
2023-05-15T03:28:16.714Z,100218.95
2023-05-15T03:30:48.431Z,100210.68
2023-05-15T03:33:20.692Z,100201.71
2023-05-15T03:35:52.942Z,100200.45
2023-05-15T03:38:24.952Z,100202.04
2023-05-15T03:40:56.809Z,100203.61
2023-05-15T03:43:28.614Z,100198.45
2023-05-15T03:46:01.813Z,100183.80
2023-05-15T03:48:34.294Z,100186.99
2023-05-15T03:51:11.018Z,100189.67
2023-05-15T03:53:42.852Z,100188.65
2023-05-15T03:56:14.681Z,100186.08
2023-05-15T03:58:46.482Z,100188.59
2023-05-15T04:01:18.301Z,100187.61
2023-05-15T04:03:50.087Z,100185.89
2023-05-15T04:06:22.994Z,100186.17
2023-05-15T04:08:54.766Z,100183.94
2023-05-15T04:11:27.217Z,100178.59
2023-05-15T04:13:59.047Z,100177.17
2023-05-15T04:16:30.944Z,100171.75
2023-05-15T04:19:02.755Z,100162.35
2023-05-15T04:21:34.723Z,100157.55
2023-05-15T04:24:08.413Z,100160.06
2023-05-15T04:26:40.170Z,100156.91
2023-05-15T04:29:12.035Z,100150.34
2023-05-15T04:31:43.915Z,100148.09
2023-05-15T04:34:16.087Z,100156.45
2023-05-15T04:36:47.829Z,100153.58
2023-05-15T04:39:19.680Z,100150.94
2023-05-15T04:41:51.468Z,100148.11
2023-05-15T04:44:23.254Z,100150.84
2023-05-15T04:46:55.017Z,100141.73
2023-05-15T04:49:27.333Z,100135.84
2023-05-15T04:51:59.202Z,100129.80
2023-05-15T04:54:31.360Z,100128.63
2023-05-15T04:57:03.450Z,100133.27
2023-05-15T04:59:35.323Z,100130.43
2023-05-15T05:02:07.563Z,100126.74
2023-05-15T05:04:39.574Z,100122.87
2023-05-15T05:07:11.530Z,100123.02
2023-05-15T05:09:43.426Z,100114.16
2023-05-15T05:12:15.528Z,100113.17
2023-05-15T05:14:47.406Z,100112.14
2023-05-15T05:17:19.675Z,100106.88
2023-05-15T05:19:51.588Z,100106.05
2023-05-15T05:22:23.853Z,100107.58
2023-05-15T05:24:56.354Z,100104.91
2023-05-15T05:27:28.405Z,100100.92
2023-05-15T05:30:00.798Z,100101.02
2023-05-15T05:32:32.742Z,100099.40
2023-05-15T05:35:05.213Z,100103.70
2023-05-15T05:37:38.700Z,100104.66
2023-05-15T05:40:14.651Z,100105.61
2023-05-15T05:42:44.859Z,100106.59
2023-05-15T05:45:16.831Z,100109.66
2023-05-15T05:47:48.666Z,100107.14
2023-05-15T05:50:20.786Z,100108.73
2023-05-15T05:52:52.942Z,100110.80
2023-05-15T05:55:25.341Z,100119.42
2023-05-15T05:57:57.657Z,100120.60
2023-05-15T06:00:29.370Z,100120.33
2023-05-15T06:03:03.164Z,100121.09
2023-05-15T06:05:35.452Z,100119.17
2023-05-15T06:08:07.872Z,100120.06
2023-05-15T06:10:40.149Z,100118.81
2023-05-15T06:13:14.910Z,100128.38
2023-05-15T06:15:47.523Z,100131.08
2023-05-15T06:18:19.408Z,100133.22
2023-05-15T06:20:51.925Z,100127.75
2023-05-15T06:23:24.359Z,100130.04
2023-05-15T06:25:56.443Z,100125.53
2023-05-15T06:28:28.303Z,100128.75
2023-05-15T06:31:00.130Z,100130.74
2023-05-15T06:33:32.132Z,100134.27
2023-05-15T06:36:04.795Z,100134.21
2023-05-15T06:38:36.676Z,100124.87
2023-05-15T06:41:08.632Z,100143.20
2023-05-15T06:43:40.712Z,100141.13
2023-05-15T06:46:12.560Z,100142.07
2023-05-15T06:48:45.453Z,100137.66
2023-05-15T06:51:17.819Z,100136.56
2023-05-15T06:53:49.598Z,100137.31
2023-05-15T06:56:21.933Z,100136.84
2023-05-15T06:58:53.712Z,100131.37
2023-05-15T07:01:25.520Z,100127.23
2023-05-15T07:03:57.348Z,100129.14
2023-05-15T07:06:29.154Z,100132.94
2023-05-15T07:09:01.043Z,100135.16
2023-05-15T07:11:33.542Z,100131.48
2023-05-15T07:14:05.378Z,100125.83
2023-05-15T07:16:37.218Z,100125.81
2023-05-15T07:19:11.256Z,100118.42
2023-05-15T07:21:43.086Z,100118.77
2023-05-15T07:24:15.001Z,100113.64
2023-05-15T07:26:57.554Z,100116.02
2023-05-15T07:29:31.079Z,100120.29
2023-05-15T07:32:03.405Z,100119.36
2023-05-15T07:34:35.419Z,100116.33
2023-05-15T07:37:07.575Z,100118.31
2023-05-15T07:39:39.608Z,100108.17
2023-05-15T07:42:11.466Z,100108.98
2023-05-15T07:44:45.014Z,100119.62
2023-05-15T07:47:18.313Z,100111.05
2023-05-15T07:49:50.126Z,100115.84
2023-05-15T07:52:21.992Z,100110.08
2023-05-15T07:54:53.776Z,100108.35
2023-05-15T07:57:26.606Z,100107.48
2023-05-15T07:59:58.527Z,100096.17
2023-05-15T08:02:30.417Z,100092.83
2023-05-15T08:05:02.310Z,100090.55
2023-05-15T08:07:35.960Z,100087.23
2023-05-15T08:10:09.484Z,100089.74
2023-05-15T08:12:46.286Z,100087.27
2023-05-15T08:15:18.219Z,100090.36
2023-05-15T08:17:50.154Z,100081.81
2023-05-15T08:20:22.030Z,100083.48
2023-05-15T08:22:53.865Z,100077.41
2023-05-15T08:25:26.410Z,100073.51
2023-05-15T08:27:58.409Z,100076.02
2023-05-15T08:30:30.378Z,100071.40
2023-05-15T08:33:02.174Z,100068.02
2023-05-15T08:35:34.057Z,100071.52
2023-05-15T08:38:06.288Z,100070.16
2023-05-15T08:40:40.074Z,100073.27
2023-05-15T08:43:17.123Z,100072.65
2023-05-15T08:45:48.999Z,100072.29
2023-05-15T08:48:21.331Z,100075.33
2023-05-15T08:50:53.913Z,100075.33
2023-05-15T08:53:25.873Z,100072.99
2023-05-15T08:55:57.719Z,100073.77
2023-05-15T08:58:29.587Z,100071.69
2023-05-15T09:01:02.462Z,100071.68
2023-05-15T09:03:34.668Z,100061.91
2023-05-15T09:06:08.211Z,100066.20
2023-05-15T09:08:40.817Z,100053.71
2023-05-15T09:11:12.786Z,100055.73
2023-05-15T09:13:44.759Z,100058.77
2023-05-15T09:16:16.534Z,100054.44
2023-05-15T09:18:48.382Z,100055.70
2023-05-15T09:21:27.778Z,100050.42
2023-05-15T09:24:18.861Z,100054.44
2023-05-15T09:27:03.996Z,100057.75
2023-05-15T09:29:38.088Z,100058.54
2023-05-15T09:32:11.952Z,100057.09
2023-05-15T09:34:45.952Z,100054.65
2023-05-15T09:37:31.497Z,100052.20
2023-05-15T09:40:12.204Z,100047.23
2023-05-15T09:42:44.052Z,100044.73
2023-05-15T09:45:21.071Z,100039.45
2023-05-15T09:47:53.248Z,100025.13
2023-05-15T09:50:33.632Z,100040.27
2023-05-15T09:53:06.143Z,100035.72
2023-05-15T09:55:37.934Z,100024.05
2023-05-15T09:58:11.665Z,100018.48
2023-05-15T10:00:48.673Z,100013.55
2023-05-15T10:03:22.011Z,100003.21
2023-05-15T10:06:03.861Z,99998.60
2023-05-15T10:08:37.220Z,100001.63
2023-05-15T10:11:09.676Z,100005.42
2023-05-15T10:13:41.570Z,99997.54
2023-05-15T10:16:14.057Z,100003.78
2023-05-15T10:18:47.218Z,100001.01
2023-05-15T10:21:20.094Z,100009.48
2023-05-15T10:23:53.626Z,100008.83
2023-05-15T10:26:28.593Z,100016.30
2023-05-15T10:29:01.127Z,100014.27
2023-05-15T10:31:33.990Z,100016.36
2023-05-15T10:34:06.000Z,100017.96
2023-05-15T10:36:39.052Z,100029.81
2023-05-15T10:39:10.945Z,100028.59
2023-05-15T10:41:43.347Z,100025.40
2023-05-15T10:44:16.177Z,100023.58
2023-05-15T10:46:48.119Z,100026.29
2023-05-15T10:49:19.946Z,100024.14
2023-05-15T10:51:52.578Z,100018.21
2023-05-15T10:54:25.796Z,100019.80
2023-05-15T10:56:58.089Z,100013.83
2023-05-15T10:59:35.684Z,100019.16
2023-05-15T11:02:24.784Z,100019.18
2023-05-15T11:05:04.643Z,100011.97
2023-05-15T11:07:36.428Z,100018.33
2023-05-15T11:10:38.516Z,100019.20
2023-05-15T11:13:12.147Z,100023.01
2023-05-15T11:15:47.895Z,100018.77
2023-05-15T11:18:19.722Z,100013.27
2023-05-15T11:21:14.267Z,100017.46
2023-05-15T11:23:49.884Z,100011.84
2023-05-15T11:26:35.195Z,100015.20
2023-05-15T11:32:35.313Z,100005.11
2023-05-15T11:35:09.747Z,99994.91
2023-05-15T11:37:45.344Z,100000.13
2023-05-15T11:40:21.425Z,99991.20
2023-05-15T11:43:07.776Z,99996.86
2023-05-15T11:45:40.834Z,100002.87
2023-05-15T11:48:16.068Z,99996.98
2023-05-15T11:50:48.009Z,99995.95
2023-05-15T11:53:21.382Z,99991.29
2023-05-15T11:55:55.360Z,99990.45
2023-05-15T11:58:28.377Z,99987.54
2023-05-15T12:01:00.377Z,99989.95
2023-05-15T12:03:37.066Z,99986.50
2023-05-15T12:06:09.268Z,99981.77
2023-05-15T12:08:42.193Z,99977.23
2023-05-15T12:11:15.020Z,99976.77
2023-05-15T12:13:47.510Z,99980.16
2023-05-15T12:16:19.932Z,99977.83
2023-05-15T12:18:52.699Z,99983.61
2023-05-15T12:21:24.698Z,99981.88
2023-05-15T12:26:32.340Z,99979.80
2023-05-15T12:29:04.389Z,99981.71
2023-05-15T12:31:38.622Z,99979.18
2023-05-15T12:34:10.894Z,99968.42
2023-05-15T12:36:45.004Z,99964.27
2023-05-15T12:39:16.734Z,99955.96
2023-05-15T12:41:50.089Z,99955.91
2023-05-15T12:44:21.893Z,99954.80
2023-05-15T12:46:56.655Z,99955.18
2023-05-15T12:49:28.364Z,99953.00
2023-05-15T12:52:00.254Z,99951.94
2023-05-15T12:54:32.021Z,99950.82
2023-05-15T12:57:03.785Z,99943.21
2023-05-15T12:59:35.585Z,99940.58
2023-05-15T13:02:10.125Z,99938.42
2023-05-15T13:04:42.400Z,99938.04
2023-05-15T13:07:17.820Z,99940.55
2023-05-15T13:10:04.844Z,99937.49
2023-05-15T13:12:40.842Z,99936.23
2023-05-15T13:15:26.021Z,99930.91
2023-05-15T13:18:01.954Z,99915.30
2023-05-15T13:20:36.241Z,99910.27
2023-05-15T13:23:08.155Z,99913.03
2023-05-15T13:25:40.504Z,99903.87
2023-05-15T13:28:13.122Z,99917.76
2023-05-15T13:30:45.827Z,99922.48
2023-05-15T13:33:17.957Z,99918.91
2023-05-15T13:35:49.768Z,99905.92
2023-05-15T13:38:21.540Z,99901.85
2023-05-15T13:40:53.267Z,99898.95
2023-05-15T13:43:26.586Z,99889.64
2023-05-15T13:45:58.673Z,99895.25
2023-05-15T13:48:30.568Z,99892.41
2023-05-15T13:51:02.414Z,99895.05
2023-05-15T13:53:34.125Z,99891.31
2023-05-15T13:56:06.433Z,99887.33
2023-05-15T13:58:38.355Z,99892.77
2023-05-15T14:01:10.186Z,99889.17
2023-05-15T14:03:41.995Z,99894.05
2023-05-15T14:06:13.842Z,99895.83
2023-05-15T14:08:45.641Z,99894.67
2023-05-15T14:11:17.442Z,99894.02
2023-05-15T14:13:49.177Z,99891.48
2023-05-15T14:16:20.928Z,99894.87
2023-05-15T14:18:52.754Z,99899.91
2023-05-15T14:21:24.932Z,99883.44
2023-05-15T14:23:56.667Z,99882.92
2023-05-15T14:26:28.530Z,99882.53
2023-05-15T14:29:00.479Z,99884.20
2023-05-15T14:31:32.274Z,99872.19
2023-05-15T14:34:05.590Z,99861.59
2023-05-15T14:36:37.340Z,99856.86
2023-05-15T14:39:09.185Z,99856.66
2023-05-15T14:41:41.109Z,99861.59
2023-05-15T14:44:13.034Z,99861.06
2023-05-15T14:46:45.809Z,99852.38
2023-05-15T14:49:17.679Z,99832.36
2023-05-15T14:51:49.450Z,99834.64
2023-05-15T14:54:21.225Z,99829.63
2023-05-15T14:56:54.366Z,99827.82
2023-05-15T14:59:27.179Z,99837.81
2023-05-15T15:01:59.002Z,99839.04
2023-05-15T15:04:34.497Z,99827.27
2023-05-15T15:07:07.979Z,99826.00
2023-05-15T15:09:40.061Z,99823.41
2023-05-15T15:12:12.061Z,99839.73
2023-05-15T15:14:43.813Z,99858.32
2023-05-15T15:17:15.658Z,99873.08
2023-05-15T15:19:47.492Z,99878.48
2023-05-15T15:22:19.293Z,99883.95
2023-05-15T15:24:51.079Z,99883.30
2023-05-15T15:27:22.935Z,99879.27
2023-05-15T15:29:54.935Z,99886.41
2023-05-15T15:32:26.879Z,99884.87
2023-05-15T15:34:58.913Z,99880.49
2023-05-15T15:37:32.825Z,99877.80
2023-05-15T15:40:07.106Z,99878.05
2023-05-15T15:42:39.025Z,99879.67
2023-05-15T15:45:11.513Z,99863.69
2023-05-15T15:47:43.395Z,99864.06
2023-05-15T15:50:15.648Z,99865.10
2023-05-15T15:52:47.588Z,99856.85
2023-05-15T15:55:19.579Z,99853.75
2023-05-15T15:57:52.244Z,99854.70
2023-05-15T16:00:24.691Z,99845.10
2023-05-15T16:02:57.050Z,99832.05
2023-05-15T16:05:29.121Z,99827.02
2023-05-15T16:08:00.991Z,99821.30
2023-05-15T16:10:32.938Z,99823.95
2023-05-15T16:13:05.465Z,99817.33
2023-05-15T16:15:37.238Z,99812.48
2023-05-15T16:18:09.226Z,99812.86
2023-05-15T16:20:41.063Z,99820.91
2023-05-15T16:23:15.573Z,99820.02
2023-05-15T16:25:47.820Z,99825.55
2023-05-15T16:28:19.806Z,99827.27
2023-05-15T16:30:52.156Z,99822.33
2023-05-15T16:33:24.026Z,99827.69
2023-05-15T16:35:56.263Z,99830.48
2023-05-15T16:38:28.057Z,99827.89
2023-05-15T16:41:00.001Z,99840.17
2023-05-15T16:43:31.925Z,99846.29
2023-05-15T16:46:04.487Z,99838.54
2023-05-15T16:48:36.368Z,99844.66
2023-05-15T16:51:08.531Z,99835.17
2023-05-15T16:53:40.780Z,99827.20
2023-05-15T16:56:14.112Z,99830.30
2023-05-15T16:58:46.356Z,99834.46
2023-05-15T17:01:18.361Z,99836.15
2023-05-15T17:03:50.293Z,99836.55
2023-05-15T17:06:22.328Z,99839.77
2023-05-15T17:08:54.379Z,99839.02
2023-05-15T17:11:26.820Z,99827.52
2023-05-15T17:13:58.792Z,99815.40
2023-05-15T17:16:30.682Z,99812.36
2023-05-15T17:19:02.736Z,99819.45
2023-05-15T17:21:37.452Z,99828.25
2023-05-15T17:24:10.221Z,99841.81
2023-05-15T17:26:42.184Z,99840.30
2023-05-15T17:29:14.001Z,99845.15
2023-05-15T17:31:45.875Z,99856.59
2023-05-15T17:34:18.755Z,99863.98
2023-05-15T17:36:51.042Z,99866.89
2023-05-15T17:39:22.861Z,99872.38
2023-05-15T17:41:54.809Z,99872.65
2023-05-15T17:44:29.730Z,99871.40
2023-05-15T17:47:01.740Z,99867.78
2023-05-15T17:49:34.404Z,99862.84
2023-05-15T17:52:06.665Z,99858.05
2023-05-15T17:54:38.593Z,99849.51
2023-05-15T17:57:10.339Z,99842.80
2023-05-15T17:59:42.360Z,99838.83
2023-05-15T18:02:14.238Z,99835.94
2023-05-15T18:04:46.104Z,99841.75
2023-05-15T18:07:17.952Z,99847.36
2023-05-15T18:09:49.900Z,99849.66
2023-05-15T18:12:21.805Z,99855.58
2023-05-15T18:14:54.059Z,99852.67
2023-05-15T18:17:25.815Z,99858.64
2023-05-15T18:19:57.635Z,99861.00
2023-05-15T18:22:29.746Z,99858.05
2023-05-15T18:25:02.231Z,99855.77
2023-05-15T18:27:34.090Z,99858.17
2023-05-15T18:30:07.389Z,99863.13
2023-05-15T18:32:40.158Z,99870.22
2023-05-15T18:35:13.048Z,99877.90
2023-05-15T18:37:44.805Z,99880.38
2023-05-15T18:40:17.599Z,99900.02
2023-05-15T18:42:49.393Z,99906.18
2023-05-15T18:45:22.353Z,99917.11
2023-05-15T18:47:55.574Z,99924.23
2023-05-15T18:50:34.045Z,99940.77
2023-05-15T18:53:06.062Z,99943.65
2023-05-15T18:55:39.222Z,99941.10
2023-05-15T18:58:11.281Z,99943.05
2023-05-15T19:00:43.276Z,99945.00
2023-05-15T19:03:15.932Z,99944.73
2023-05-15T19:05:47.867Z,99952.89
2023-05-15T19:08:19.648Z,99952.68
2023-05-15T19:10:51.869Z,99949.00
2023-05-15T19:13:23.707Z,99945.66
2023-05-15T19:15:55.625Z,99944.48
2023-05-15T19:18:27.623Z,99937.09
2023-05-15T19:21:00.851Z,99934.96
2023-05-15T19:23:32.753Z,99930.81
2023-05-15T19:26:04.599Z,99928.34
2023-05-15T19:28:36.862Z,99926.78
2023-05-15T19:31:20.420Z,99929.30
2023-05-15T19:34:00.935Z,99919.88
2023-05-15T19:36:33.055Z,99911.83
2023-05-15T19:39:04.874Z,99907.70
2023-05-15T19:41:38.053Z,99908.55
2023-05-15T19:44:10.005Z,99906.00
2023-05-15T19:46:41.994Z,99900.58
2023-05-15T19:49:14.093Z,99894.52
2023-05-15T19:51:46.044Z,99903.70
2023-05-15T19:54:17.975Z,99902.75
2023-05-15T19:56:49.730Z,99906.77
2023-05-15T19:59:21.460Z,99911.48
2023-05-15T20:01:53.611Z,99913.04
2023-05-15T20:04:26.184Z,99915.48
2023-05-15T20:06:57.906Z,99927.82
2023-05-15T20:09:29.674Z,99916.92
2023-05-15T20:12:02.798Z,99917.77
2023-05-15T20:14:34.914Z,99906.67
2023-05-15T20:17:07.115Z,99906.73
2023-05-15T20:19:38.932Z,99906.11
2023-05-15T20:22:10.676Z,99904.02
2023-05-15T20:24:42.492Z,99901.45
2023-05-15T20:27:14.275Z,99904.30
2023-05-15T20:29:46.615Z,99905.78
2023-05-15T20:32:18.474Z,99909.60
2023-05-15T20:34:52.125Z,99908.68
2023-05-15T20:37:27.508Z,99905.57
2023-05-15T20:40:00.208Z,99904.43
2023-05-15T20:42:33.045Z,99900.99
2023-05-15T20:45:05.389Z,99894.89
2023-05-15T20:47:37.391Z,99894.50
2023-05-15T20:50:11.110Z,99892.08
2023-05-15T20:52:43.042Z,99893.27
2023-05-15T20:55:17.218Z,99888.27
2023-05-15T20:57:50.404Z,99898.96
2023-05-15T21:00:22.283Z,99900.23
2023-05-15T21:02:54.318Z,99895.77
2023-05-15T21:05:26.394Z,99896.65
2023-05-15T21:08:00.424Z,99902.80
2023-05-15T21:10:32.444Z,99899.64
2023-05-15T21:13:05.175Z,99898.64
2023-05-15T21:15:37.533Z,99900.28
2023-05-15T21:18:09.602Z,99897.69
2023-05-15T21:20:42.495Z,99898.48
2023-05-15T21:23:14.370Z,99895.41
2023-05-15T21:25:46.444Z,99890.30
2023-05-15T21:28:18.296Z,99902.77
2023-05-15T21:30:50.076Z,99899.62
2023-05-15T21:33:22.033Z,99897.27
2023-05-15T21:35:53.934Z,99893.28
2023-05-15T21:38:25.851Z,99888.45
2023-05-15T21:40:57.600Z,99886.88
2023-05-15T21:43:29.559Z,99886.64
2023-05-15T21:46:01.447Z,99886.90
2023-05-15T21:48:33.368Z,99885.02
2023-05-15T21:51:05.173Z,99883.02
2023-05-15T21:53:37.012Z,99886.36
2023-05-15T21:56:09.989Z,99888.59
2023-05-15T21:58:41.890Z,99893.85
2023-05-15T22:01:13.940Z,99895.12
2023-05-15T22:03:46.332Z,99894.95
2023-05-15T22:06:18.501Z,99900.52
2023-05-15T22:08:50.337Z,99894.16
2023-05-15T22:11:22.219Z,99901.71
2023-05-15T22:13:53.933Z,99903.54
2023-05-15T22:16:26.138Z,99904.20
2023-05-15T22:18:58.761Z,99902.91
2023-05-15T22:21:31.392Z,99901.11
2023-05-15T22:24:04.515Z,99898.95
2023-05-15T22:26:36.364Z,99900.13
2023-05-15T22:29:09.051Z,99903.57
2023-05-15T22:31:41.266Z,99906.38
2023-05-15T22:34:13.112Z,99909.38
2023-05-15T22:36:45.160Z,99913.21
2023-05-15T22:39:16.988Z,99911.09
2023-05-15T22:41:49.591Z,99920.22
2023-05-15T22:44:21.476Z,99923.91
2023-05-15T22:46:53.355Z,99928.34
2023-05-15T22:49:25.617Z,99928.14
2023-05-15T22:51:58.802Z,99933.76
2023-05-15T22:54:30.685Z,99931.96
2023-05-15T22:57:02.729Z,99935.59
2023-05-15T22:59:34.526Z,99936.01
2023-05-15T23:02:06.399Z,99938.65
2023-05-15T23:04:38.129Z,99939.85
2023-05-15T23:07:10.418Z,99941.09
2023-05-15T23:09:42.333Z,99942.40
2023-05-15T23:12:14.229Z,99935.48
2023-05-15T23:14:46.287Z,99942.27
2023-05-15T23:17:18.077Z,99941.91
2023-05-15T23:19:49.859Z,99936.09
2023-05-15T23:22:22.279Z,99934.52
2023-05-15T23:24:54.181Z,99937.91
2023-05-15T23:27:25.965Z,99935.33
2023-05-15T23:29:57.927Z,99923.45
2023-05-15T23:32:30.849Z,99930.36
2023-05-15T23:35:03.167Z,99926.86
2023-05-15T23:37:34.984Z,99925.23
2023-05-15T23:40:08.223Z,99918.98
2023-05-15T23:42:39.973Z,99923.80
2023-05-15T23:45:15.111Z,99923.20
2023-05-15T23:47:47.648Z,99920.83
2023-05-15T23:50:21.237Z,99907.59
2023-05-15T23:52:53.029Z,99918.83
2023-05-15T23:55:24.753Z,99917.77
2023-05-15T23:57:56.807Z,99915.39
